sensor_id;sensor_type;location;lat;lon;timestamp;P1;durP1;ratioP1;P2;durP2;ratioP2
21046;SDS011;10682;50.874;3.656;2023-02-15T00:00:05;63.57;;;28.87;;
21046;SDS011;10682;50.874;3.656;2023-02-15T00:02:36;64.77;;;29.57;;
21046;SDS011;10682;50.874;3.656;2023-02-15T00:05:04;69.70;;;30.57;;
21046;SDS011;10682;50.874;3.656;2023-02-15T00:07:31;77.70;;;34.07;;
21046;SDS011;10682;50.874;3.656;2023-02-15T00:09:58;80.53;;;35.27;;
21046;SDS011;10682;50.874;3.656;2023-02-15T00:12:26;93.07;;;39.17;;
21046;SDS011;10682;50.874;3.656;2023-02-15T00:14:52;88.93;;;38.60;;
21046;SDS011;10682;50.874;3.656;2023-02-15T00:17:20;90.67;;;38.90;;
21046;SDS011;10682;50.874;3.656;2023-02-15T00:19:47;98.60;;;41.60;;
21046;SDS011;10682;50.874;3.656;2023-02-15T00:22:14;95.97;;;40.17;;
21046;SDS011;10682;50.874;3.656;2023-02-15T00:24:41;101.60;;;42.33;;
21046;SDS011;10682;50.874;3.656;2023-02-15T00:27:08;110.53;;;45.10;;
21046;SDS011;10682;50.874;3.656;2023-02-15T00:29:35;106.93;;;45.60;;
21046;SDS011;10682;50.874;3.656;2023-02-15T00:32:02;96.23;;;40.40;;
21046;SDS011;10682;50.874;3.656;2023-02-15T00:34:29;90.73;;;38.77;;
21046;SDS011;10682;50.874;3.656;2023-02-15T00:36:56;86.13;;;36.67;;
21046;SDS011;10682;50.874;3.656;2023-02-15T00:39:24;77.37;;;34.50;;
21046;SDS011;10682;50.874;3.656;2023-02-15T00:41:51;59.53;;;29.00;;
21046;SDS011;10682;50.874;3.656;2023-02-15T00:44:18;60.87;;;27.27;;
21046;SDS011;10682;50.874;3.656;2023-02-15T00:46:45;63.97;;;29.27;;
21046;SDS011;10682;50.874;3.656;2023-02-15T00:49:12;58.13;;;29.00;;
21046;SDS011;10682;50.874;3.656;2023-02-15T00:51:39;66.23;;;29.93;;
21046;SDS011;10682;50.874;3.656;2023-02-15T00:54:06;74.33;;;31.90;;
21046;SDS011;10682;50.874;3.656;2023-02-15T00:56:34;62.07;;;29.53;;
21046;SDS011;10682;50.874;3.656;2023-02-15T00:59:01;70.10;;;30.97;;
21046;SDS011;10682;50.874;3.656;2023-02-15T01:01:28;71.13;;;31.27;;
21046;SDS011;10682;50.874;3.656;2023-02-15T01:03:55;72.37;;;32.07;;
21046;SDS011;10682;50.874;3.656;2023-02-15T01:06:23;82.50;;;33.73;;
21046;SDS011;10682;50.874;3.656;2023-02-15T01:08:50;88.27;;;33.67;;
21046;SDS011;10682;50.874;3.656;2023-02-15T01:11:18;88.97;;;34.67;;
21046;SDS011;10682;50.874;3.656;2023-02-15T01:13:51;84.10;;;33.70;;
21046;SDS011;10682;50.874;3.656;2023-02-15T01:16:20;87.03;;;34.80;;
21046;SDS011;10682;50.874;3.656;2023-02-15T01:18:50;90.73;;;36.03;;
21046;SDS011;10682;50.874;3.656;2023-02-15T01:21:18;101.23;;;40.53;;
21046;SDS011;10682;50.874;3.656;2023-02-15T01:23:47;102.43;;;38.93;;
21046;SDS011;10682;50.874;3.656;2023-02-15T01:26:15;94.50;;;37.37;;
21046;SDS011;10682;50.874;3.656;2023-02-15T01:28:43;84.73;;;36.00;;
21046;SDS011;10682;50.874;3.656;2023-02-15T01:31:11;88.27;;;37.00;;
21046;SDS011;10682;50.874;3.656;2023-02-15T01:33:45;84.30;;;35.57;;
21046;SDS011;10682;50.874;3.656;2023-02-15T01:36:14;92.93;;;37.40;;
21046;SDS011;10682;50.874;3.656;2023-02-15T01:38:43;88.23;;;36.17;;
21046;SDS011;10682;50.874;3.656;2023-02-15T01:41:11;88.00;;;35.13;;
21046;SDS011;10682;50.874;3.656;2023-02-15T01:43:53;87.37;;;36.00;;
21046;SDS011;10682;50.874;3.656;2023-02-15T01:46:49;87.97;;;37.20;;
21046;SDS011;10682;50.874;3.656;2023-02-15T01:49:19;89.07;;;34.47;;
21046;SDS011;10682;50.874;3.656;2023-02-15T01:51:50;90.30;;;37.43;;
21046;SDS011;10682;50.874;3.656;2023-02-15T01:54:21;84.73;;;35.17;;
21046;SDS011;10682;50.874;3.656;2023-02-15T01:56:56;84.23;;;35.27;;
21046;SDS011;10682;50.874;3.656;2023-02-15T01:59:28;79.70;;;34.07;;
21046;SDS011;10682;50.874;3.656;2023-02-15T02:01:58;87.60;;;35.20;;
21046;SDS011;10682;50.874;3.656;2023-02-15T02:04:31;77.27;;;32.97;;
21046;SDS011;10682;50.874;3.656;2023-02-15T02:07:12;79.90;;;32.90;;
21046;SDS011;10682;50.874;3.656;2023-02-15T02:09:44;86.43;;;34.90;;
21046;SDS011;10682;50.874;3.656;2023-02-15T02:12:12;92.97;;;37.67;;
21046;SDS011;10682;50.874;3.656;2023-02-15T02:14:40;86.67;;;37.00;;
21046;SDS011;10682;50.874;3.656;2023-02-15T02:29:16;95.77;;;37.67;;
21046;SDS011;10682;50.874;3.656;2023-02-15T02:32:12;97.50;;;38.43;;
21046;SDS011;10682;50.874;3.656;2023-02-15T02:34:45;97.77;;;38.13;;
21046;SDS011;10682;50.874;3.656;2023-02-15T02:37:29;117.40;;;44.23;;
21046;SDS011;10682;50.874;3.656;2023-02-15T02:40:13;109.17;;;40.10;;
21046;SDS011;10682;50.874;3.656;2023-02-15T02:43:01;97.73;;;39.20;;
21046;SDS011;10682;50.874;3.656;2023-02-15T02:46:02;93.37;;;37.27;;
21046;SDS011;10682;50.874;3.656;2023-02-15T02:48:36;94.17;;;38.00;;
21046;SDS011;10682;50.874;3.656;2023-02-15T02:51:04;104.07;;;40.50;;
21046;SDS011;10682;50.874;3.656;2023-02-15T02:53:31;98.23;;;41.00;;
21046;SDS011;10682;50.874;3.656;2023-02-15T02:56:05;107.33;;;41.30;;
21046;SDS011;10682;50.874;3.656;2023-02-15T02:58:46;97.17;;;37.63;;
21046;SDS011;10682;50.874;3.656;2023-02-15T03:01:32;101.87;;;40.10;;
21046;SDS011;10682;50.874;3.656;2023-02-15T03:04:23;96.47;;;38.20;;
21046;SDS011;10682;50.874;3.656;2023-02-15T03:09:39;92.57;;;37.77;;
21046;SDS011;10682;50.874;3.656;2023-02-15T03:14:55;91.80;;;36.00;;
21046;SDS011;10682;50.874;3.656;2023-02-15T03:17:38;85.27;;;36.10;;
21046;SDS011;10682;50.874;3.656;2023-02-15T03:20:14;105.37;;;40.00;;
21046;SDS011;10682;50.874;3.656;2023-02-15T03:22:48;104.70;;;40.70;;
21046;SDS011;10682;50.874;3.656;2023-02-15T03:25:34;99.30;;;39.67;;
21046;SDS011;10682;50.874;3.656;2023-02-15T03:28:07;92.43;;;36.27;;
21046;SDS011;10682;50.874;3.656;2023-02-15T03:30:39;94.27;;;38.17;;
21046;SDS011;10682;50.874;3.656;2023-02-15T03:33:08;99.00;;;36.60;;
21046;SDS011;10682;50.874;3.656;2023-02-15T03:42:30;81.33;;;32.70;;
21046;SDS011;10682;50.874;3.656;2023-02-15T03:45:09;76.43;;;33.67;;
21046;SDS011;10682;50.874;3.656;2023-02-15T03:47:46;83.50;;;33.17;;
21046;SDS011;10682;50.874;3.656;2023-02-15T03:53:05;75.57;;;31.27;;
21046;SDS011;10682;50.874;3.656;2023-02-15T03:55:36;79.73;;;32.40;;
21046;SDS011;10682;50.874;3.656;2023-02-15T03:58:04;74.53;;;32.20;;
21046;SDS011;10682;50.874;3.656;2023-02-15T04:00:52;83.40;;;33.23;;
21046;SDS011;10682;50.874;3.656;2023-02-15T04:03:45;82.80;;;33.87;;
21046;SDS011;10682;50.874;3.656;2023-02-15T04:06:20;88.07;;;34.77;;
21046;SDS011;10682;50.874;3.656;2023-02-15T04:08:47;88.30;;;34.67;;
21046;SDS011;10682;50.874;3.656;2023-02-15T04:11:32;87.93;;;34.03;;
21046;SDS011;10682;50.874;3.656;2023-02-15T04:13:59;84.73;;;33.37;;
21046;SDS011;10682;50.874;3.656;2023-02-15T04:16:46;86.90;;;35.60;;
21046;SDS011;10682;50.874;3.656;2023-02-15T04:19:13;95.60;;;37.97;;
21046;SDS011;10682;50.874;3.656;2023-02-15T04:21:58;98.97;;;35.87;;
21046;SDS011;10682;50.874;3.656;2023-02-15T04:24:44;97.40;;;36.40;;
21046;SDS011;10682;50.874;3.656;2023-02-15T04:27:31;100.13;;;37.63;;
21046;SDS011;10682;50.874;3.656;2023-02-15T04:29:58;89.27;;;36.67;;
21046;SDS011;10682;50.874;3.656;2023-02-15T04:32:25;89.17;;;34.23;;
21046;SDS011;10682;50.874;3.656;2023-02-15T04:34:52;82.50;;;33.23;;
21046;SDS011;10682;50.874;3.656;2023-02-15T04:37:19;79.60;;;32.80;;
21046;SDS011;10682;50.874;3.656;2023-02-15T04:39:46;85.10;;;33.70;;
21046;SDS011;10682;50.874;3.656;2023-02-15T04:42:13;87.63;;;33.13;;
21046;SDS011;10682;50.874;3.656;2023-02-15T04:44:40;82.03;;;33.50;;
21046;SDS011;10682;50.874;3.656;2023-02-15T04:47:08;84.73;;;33.87;;
21046;SDS011;10682;50.874;3.656;2023-02-15T04:49:35;88.67;;;36.07;;
21046;SDS011;10682;50.874;3.656;2023-02-15T04:52:02;84.80;;;35.40;;
21046;SDS011;10682;50.874;3.656;2023-02-15T04:54:29;84.53;;;34.37;;
21046;SDS011;10682;50.874;3.656;2023-02-15T04:56:56;84.40;;;34.37;;
21046;SDS011;10682;50.874;3.656;2023-02-15T04:59:23;86.43;;;34.07;;
21046;SDS011;10682;50.874;3.656;2023-02-15T05:01:50;77.00;;;32.70;;
21046;SDS011;10682;50.874;3.656;2023-02-15T05:04:17;87.67;;;35.47;;
21046;SDS011;10682;50.874;3.656;2023-02-15T05:06:44;84.53;;;33.87;;
21046;SDS011;10682;50.874;3.656;2023-02-15T05:09:11;98.97;;;38.57;;
21046;SDS011;10682;50.874;3.656;2023-02-15T05:11:39;98.60;;;38.57;;
21046;SDS011;10682;50.874;3.656;2023-02-15T05:14:06;91.03;;;37.00;;
21046;SDS011;10682;50.874;3.656;2023-02-15T05:16:33;90.43;;;36.43;;
21046;SDS011;10682;50.874;3.656;2023-02-15T05:19:00;94.40;;;36.33;;
21046;SDS011;10682;50.874;3.656;2023-02-15T05:21:28;95.90;;;37.47;;
21046;SDS011;10682;50.874;3.656;2023-02-15T05:23:55;92.70;;;37.20;;
21046;SDS011;10682;50.874;3.656;2023-02-15T05:26:23;102.17;;;40.23;;
21046;SDS011;10682;50.874;3.656;2023-02-15T05:29:09;93.87;;;38.80;;
21046;SDS011;10682;50.874;3.656;2023-02-15T05:31:37;92.97;;;37.13;;
21046;SDS011;10682;50.874;3.656;2023-02-15T05:34:04;95.73;;;39.47;;
21046;SDS011;10682;50.874;3.656;2023-02-15T05:36:31;98.73;;;39.17;;
21046;SDS011;10682;50.874;3.656;2023-02-15T05:38:58;89.90;;;37.93;;
21046;SDS011;10682;50.874;3.656;2023-02-15T05:41:25;94.13;;;38.77;;
21046;SDS011;10682;50.874;3.656;2023-02-15T05:43:54;90.53;;;37.40;;
21046;SDS011;10682;50.874;3.656;2023-02-15T05:46:22;97.60;;;38.03;;
21046;SDS011;10682;50.874;3.656;2023-02-15T05:48:50;99.27;;;37.77;;
21046;SDS011;10682;50.874;3.656;2023-02-15T05:51:17;102.67;;;37.77;;
21046;SDS011;10682;50.874;3.656;2023-02-15T05:53:44;95.27;;;37.57;;
21046;SDS011;10682;50.874;3.656;2023-02-15T05:56:11;85.13;;;36.23;;
21046;SDS011;10682;50.874;3.656;2023-02-15T05:58:40;93.77;;;36.77;;
21046;SDS011;10682;50.874;3.656;2023-02-15T06:01:08;87.70;;;36.57;;
21046;SDS011;10682;50.874;3.656;2023-02-15T06:03:40;90.83;;;36.63;;
21046;SDS011;10682;50.874;3.656;2023-02-15T06:06:07;91.77;;;37.33;;
21046;SDS011;10682;50.874;3.656;2023-02-15T06:08:35;86.80;;;35.97;;
21046;SDS011;10682;50.874;3.656;2023-02-15T06:11:03;98.63;;;37.37;;
21046;SDS011;10682;50.874;3.656;2023-02-15T06:13:32;93.83;;;36.73;;
21046;SDS011;10682;50.874;3.656;2023-02-15T06:16:04;105.23;;;39.70;;
21046;SDS011;10682;50.874;3.656;2023-02-15T06:18:32;90.60;;;39.47;;
21046;SDS011;10682;50.874;3.656;2023-02-15T06:21:00;109.10;;;43.40;;
21046;SDS011;10682;50.874;3.656;2023-02-15T06:23:27;107.80;;;42.67;;
21046;SDS011;10682;50.874;3.656;2023-02-15T06:25:54;111.63;;;44.07;;
21046;SDS011;10682;50.874;3.656;2023-02-15T06:28:21;110.63;;;45.37;;
21046;SDS011;10682;50.874;3.656;2023-02-15T06:30:48;121.53;;;47.40;;
21046;SDS011;10682;50.874;3.656;2023-02-15T06:33:15;113.43;;;45.60;;
21046;SDS011;10682;50.874;3.656;2023-02-15T06:35:43;114.00;;;46.47;;
21046;SDS011;10682;50.874;3.656;2023-02-15T06:38:12;114.73;;;46.27;;
21046;SDS011;10682;50.874;3.656;2023-02-15T06:40:39;106.50;;;43.00;;
21046;SDS011;10682;50.874;3.656;2023-02-15T06:43:06;103.07;;;43.60;;
21046;SDS011;10682;50.874;3.656;2023-02-15T06:45:33;108.20;;;43.80;;
21046;SDS011;10682;50.874;3.656;2023-02-15T06:48:00;96.60;;;40.93;;
21046;SDS011;10682;50.874;3.656;2023-02-15T06:50:27;107.70;;;44.67;;
21046;SDS011;10682;50.874;3.656;2023-02-15T06:52:55;118.47;;;44.47;;
21046;SDS011;10682;50.874;3.656;2023-02-15T06:55:25;105.07;;;42.10;;
21046;SDS011;10682;50.874;3.656;2023-02-15T06:57:53;102.87;;;43.47;;
21046;SDS011;10682;50.874;3.656;2023-02-15T07:00:20;104.73;;;42.43;;
21046;SDS011;10682;50.874;3.656;2023-02-15T07:02:56;103.90;;;42.97;;
21046;SDS011;10682;50.874;3.656;2023-02-15T07:05:24;104.23;;;42.67;;
21046;SDS011;10682;50.874;3.656;2023-02-15T07:07:57;108.30;;;43.50;;
21046;SDS011;10682;50.874;3.656;2023-02-15T07:10:25;102.13;;;43.97;;
21046;SDS011;10682;50.874;3.656;2023-02-15T07:12:53;117.37;;;44.00;;
21046;SDS011;10682;50.874;3.656;2023-02-15T07:15:20;107.80;;;42.83;;
21046;SDS011;10682;50.874;3.656;2023-02-15T07:17:48;98.13;;;40.97;;
21046;SDS011;10682;50.874;3.656;2023-02-15T07:20:19;97.10;;;41.37;;
21046;SDS011;10682;50.874;3.656;2023-02-15T07:22:48;95.60;;;41.57;;
21046;SDS011;10682;50.874;3.656;2023-02-15T07:25:16;90.33;;;38.47;;
21046;SDS011;10682;50.874;3.656;2023-02-15T07:27:44;113.00;;;43.67;;
21046;SDS011;10682;50.874;3.656;2023-02-15T07:30:19;106.43;;;44.83;;
21046;SDS011;10682;50.874;3.656;2023-02-15T07:32:46;102.00;;;42.30;;
21046;SDS011;10682;50.874;3.656;2023-02-15T07:35:31;102.63;;;43.23;;
21046;SDS011;10682;50.874;3.656;2023-02-15T07:37:59;108.77;;;43.97;;
21046;SDS011;10682;50.874;3.656;2023-02-15T07:40:27;111.37;;;43.97;;
21046;SDS011;10682;50.874;3.656;2023-02-15T07:42:57;108.53;;;45.60;;
21046;SDS011;10682;50.874;3.656;2023-02-15T07:45:25;99.40;;;42.63;;
21046;SDS011;10682;50.874;3.656;2023-02-15T07:47:53;112.07;;;44.03;;
21046;SDS011;10682;50.874;3.656;2023-02-15T07:50:20;105.50;;;43.77;;
21046;SDS011;10682;50.874;3.656;2023-02-15T07:52:47;119.93;;;44.63;;
21046;SDS011;10682;50.874;3.656;2023-02-15T07:55:14;102.57;;;42.07;;
21046;SDS011;10682;50.874;3.656;2023-02-15T07:57:44;93.97;;;41.47;;
21046;SDS011;10682;50.874;3.656;2023-02-15T08:00:13;100.43;;;43.73;;
21046;SDS011;10682;50.874;3.656;2023-02-15T08:02:49;100.53;;;43.03;;
21046;SDS011;10682;50.874;3.656;2023-02-15T08:05:42;98.47;;;42.83;;
21046;SDS011;10682;50.874;3.656;2023-02-15T08:08:11;101.60;;;44.83;;
21046;SDS011;10682;50.874;3.656;2023-02-15T08:10:57;103.10;;;43.73;;
21046;SDS011;10682;50.874;3.656;2023-02-15T08:13:44;93.67;;;41.53;;
21046;SDS011;10682;50.874;3.656;2023-02-15T08:21:46;103.03;;;42.90;;
21046;SDS011;10682;50.874;3.656;2023-02-15T08:24:16;101.63;;;42.47;;
21046;SDS011;10682;50.874;3.656;2023-02-15T08:26:46;78.30;;;36.83;;
21046;SDS011;10682;50.874;3.656;2023-02-15T08:29:15;76.03;;;35.37;;
21046;SDS011;10682;50.874;3.656;2023-02-15T08:31:48;74.33;;;35.27;;
21046;SDS011;10682;50.874;3.656;2023-02-15T08:34:20;71.73;;;33.87;;
21046;SDS011;10682;50.874;3.656;2023-02-15T08:36:47;77.90;;;34.77;;
21046;SDS011;10682;50.874;3.656;2023-02-15T08:39:15;73.37;;;33.50;;
21046;SDS011;10682;50.874;3.656;2023-02-15T08:41:43;81.50;;;33.77;;
21046;SDS011;10682;50.874;3.656;2023-02-15T08:44:13;78.47;;;34.13;;
21046;SDS011;10682;50.874;3.656;2023-02-15T08:46:43;80.87;;;34.00;;
21046;SDS011;10682;50.874;3.656;2023-02-15T08:49:19;72.50;;;33.17;;
21046;SDS011;10682;50.874;3.656;2023-02-15T08:51:47;66.57;;;29.90;;
21046;SDS011;10682;50.874;3.656;2023-02-15T08:54:16;61.83;;;27.27;;
21046;SDS011;10682;50.874;3.656;2023-02-15T08:56:47;67.37;;;28.63;;
21046;SDS011;10682;50.874;3.656;2023-02-15T08:59:18;63.87;;;27.77;;
21046;SDS011;10682;50.874;3.656;2023-02-15T09:01:48;62.30;;;27.63;;
21046;SDS011;10682;50.874;3.656;2023-02-15T09:04:17;62.27;;;27.80;;
21046;SDS011;10682;50.874;3.656;2023-02-15T09:06:46;59.87;;;28.07;;
21046;SDS011;10682;50.874;3.656;2023-02-15T09:09:15;61.53;;;27.93;;
21046;SDS011;10682;50.874;3.656;2023-02-15T09:11:44;62.60;;;27.67;;
21046;SDS011;10682;50.874;3.656;2023-02-15T09:14:15;60.43;;;26.67;;
21046;SDS011;10682;50.874;3.656;2023-02-15T09:16:46;62.87;;;26.33;;
21046;SDS011;10682;50.874;3.656;2023-02-15T09:19:17;60.70;;;26.00;;
21046;SDS011;10682;50.874;3.656;2023-02-15T09:21:46;57.03;;;25.80;;
21046;SDS011;10682;50.874;3.656;2023-02-15T09:24:15;57.20;;;25.27;;
21046;SDS011;10682;50.874;3.656;2023-02-15T09:26:44;62.97;;;27.37;;
21046;SDS011;10682;50.874;3.656;2023-02-15T09:29:13;59.93;;;25.47;;
21046;SDS011;10682;50.874;3.656;2023-02-15T09:31:42;56.80;;;26.43;;
21046;SDS011;10682;50.874;3.656;2023-02-15T09:34:13;54.60;;;25.33;;
21046;SDS011;10682;50.874;3.656;2023-02-15T09:36:44;49.57;;;24.77;;
21046;SDS011;10682;50.874;3.656;2023-02-15T09:39:16;53.83;;;25.53;;
21046;SDS011;10682;50.874;3.656;2023-02-15T09:41:59;52.57;;;24.30;;
21046;SDS011;10682;50.874;3.656;2023-02-15T09:50:57;53.97;;;26.93;;
21046;SDS011;10682;50.874;3.656;2023-02-15T09:56:50;56.50;;;26.97;;
21046;SDS011;10682;50.874;3.656;2023-02-15T10:02:20;54.10;;;26.40;;
21046;SDS011;10682;50.874;3.656;2023-02-15T10:05:44;60.17;;;25.63;;
21046;SDS011;10682;50.874;3.656;2023-02-15T10:11:15;56.53;;;27.20;;
21046;SDS011;10682;50.874;3.656;2023-02-15T10:19:56;53.87;;;26.70;;
21046;SDS011;10682;50.874;3.656;2023-02-15T10:28:27;57.33;;;27.57;;
21046;SDS011;10682;50.874;3.656;2023-02-15T10:31:57;55.83;;;26.77;;
21046;SDS011;10682;50.874;3.656;2023-02-15T10:39:52;58.10;;;28.17;;
21046;SDS011;10682;50.874;3.656;2023-02-15T10:45:53;62.47;;;28.67;;
21046;SDS011;10682;50.874;3.656;2023-02-15T10:54:35;62.67;;;30.00;;
21046;SDS011;10682;50.874;3.656;2023-02-15T10:57:25;60.40;;;29.00;;
21046;SDS011;10682;50.874;3.656;2023-02-15T11:00:34;61.77;;;30.17;;
21046;SDS011;10682;50.874;3.656;2023-02-15T11:03:34;61.70;;;29.77;;
21046;SDS011;10682;50.874;3.656;2023-02-15T11:06:32;62.13;;;29.77;;
21046;SDS011;10682;50.874;3.656;2023-02-15T11:09:03;62.30;;;30.13;;
21046;SDS011;10682;50.874;3.656;2023-02-15T11:11:39;68.07;;;30.60;;
21046;SDS011;10682;50.874;3.656;2023-02-15T11:14:15;64.93;;;29.93;;
21046;SDS011;10682;50.874;3.656;2023-02-15T11:16:54;60.50;;;29.23;;
21046;SDS011;10682;50.874;3.656;2023-02-15T11:19:34;65.20;;;29.80;;
21046;SDS011;10682;50.874;3.656;2023-02-15T11:22:06;61.87;;;29.03;;
21046;SDS011;10682;50.874;3.656;2023-02-15T11:24:43;65.23;;;31.63;;
21046;SDS011;10682;50.874;3.656;2023-02-15T11:27:21;56.97;;;29.57;;
21046;SDS011;10682;50.874;3.656;2023-02-15T11:32:33;59.37;;;29.40;;
21046;SDS011;10682;50.874;3.656;2023-02-15T11:46:24;57.33;;;29.20;;
21046;SDS011;10682;50.874;3.656;2023-02-15T11:48:51;64.20;;;30.57;;
21046;SDS011;10682;50.874;3.656;2023-02-15T11:51:20;62.77;;;30.37;;
21046;SDS011;10682;50.874;3.656;2023-02-15T11:53:49;59.90;;;29.90;;
21046;SDS011;10682;50.874;3.656;2023-02-15T11:56:21;60.43;;;29.10;;
21046;SDS011;10682;50.874;3.656;2023-02-15T11:59:00;57.47;;;28.37;;
21046;SDS011;10682;50.874;3.656;2023-02-15T12:01:35;58.87;;;29.97;;
21046;SDS011;10682;50.874;3.656;2023-02-15T12:09:54;64.63;;;31.17;;
21046;SDS011;10682;50.874;3.656;2023-02-15T12:12:34;56.77;;;30.47;;
21046;SDS011;10682;50.874;3.656;2023-02-15T12:15:03;57.90;;;30.27;;
21046;SDS011;10682;50.874;3.656;2023-02-15T12:17:49;60.90;;;29.77;;
21046;SDS011;10682;50.874;3.656;2023-02-15T12:22:49;64.23;;;31.17;;
21046;SDS011;10682;50.874;3.656;2023-02-15T12:25:22;61.87;;;31.23;;
21046;SDS011;10682;50.874;3.656;2023-02-15T12:27:58;57.20;;;30.03;;
21046;SDS011;10682;50.874;3.656;2023-02-15T12:33:05;64.73;;;30.17;;
21046;SDS011;10682;50.874;3.656;2023-02-15T12:35:55;62.37;;;32.03;;
21046;SDS011;10682;50.874;3.656;2023-02-15T12:38:36;71.93;;;31.90;;
21046;SDS011;10682;50.874;3.656;2023-02-15T12:41:10;66.37;;;32.37;;
21046;SDS011;10682;50.874;3.656;2023-02-15T12:43:47;70.43;;;32.90;;
21046;SDS011;10682;50.874;3.656;2023-02-15T12:46:41;60.33;;;31.33;;
21046;SDS011;10682;50.874;3.656;2023-02-15T12:49:18;72.60;;;32.40;;
21046;SDS011;10682;50.874;3.656;2023-02-15T12:51:50;70.60;;;34.17;;
21046;SDS011;10682;50.874;3.656;2023-02-15T12:56:56;64.93;;;32.50;;
21046;SDS011;10682;50.874;3.656;2023-02-15T12:59:24;64.67;;;32.33;;
21046;SDS011;10682;50.874;3.656;2023-02-15T13:01:52;64.23;;;32.27;;
21046;SDS011;10682;50.874;3.656;2023-02-15T13:06:56;71.23;;;33.73;;
21046;SDS011;10682;50.874;3.656;2023-02-15T13:12:08;78.73;;;33.87;;
21046;SDS011;10682;50.874;3.656;2023-02-15T13:14:47;73.33;;;34.07;;
21046;SDS011;10682;50.874;3.656;2023-02-15T13:17:19;76.30;;;35.20;;
21046;SDS011;10682;50.874;3.656;2023-02-15T13:19:57;67.80;;;33.07;;
21046;SDS011;10682;50.874;3.656;2023-02-15T13:22:35;66.57;;;33.37;;
21046;SDS011;10682;50.874;3.656;2023-02-15T13:25:10;68.33;;;34.17;;
21046;SDS011;10682;50.874;3.656;2023-02-15T13:27:54;71.50;;;34.43;;
21046;SDS011;10682;50.874;3.656;2023-02-15T13:30:31;64.30;;;33.27;;
21046;SDS011;10682;50.874;3.656;2023-02-15T13:33:05;67.77;;;32.83;;
21046;SDS011;10682;50.874;3.656;2023-02-15T13:41:23;68.43;;;33.20;;
21046;SDS011;10682;50.874;3.656;2023-02-15T13:44:14;61.43;;;31.43;;
21046;SDS011;10682;50.874;3.656;2023-02-15T13:46:51;69.10;;;32.90;;
21046;SDS011;10682;50.874;3.656;2023-02-15T13:52:51;66.13;;;32.83;;
21046;SDS011;10682;50.874;3.656;2023-02-15T14:01:27;62.93;;;32.13;;
21046;SDS011;10682;50.874;3.656;2023-02-15T14:21:38;51.27;;;25.93;;
21046;SDS011;10682;50.874;3.656;2023-02-15T14:24:30;54.63;;;27.90;;
21046;SDS011;10682;50.874;3.656;2023-02-15T14:30:15;55.60;;;27.83;;
21046;SDS011;10682;50.874;3.656;2023-02-15T14:32:54;54.43;;;28.40;;
21046;SDS011;10682;50.874;3.656;2023-02-15T14:35:35;55.03;;;27.77;;
21046;SDS011;10682;50.874;3.656;2023-02-15T14:41:01;54.70;;;27.60;;
21046;SDS011;10682;50.874;3.656;2023-02-15T14:49:51;57.17;;;28.33;;
21046;SDS011;10682;50.874;3.656;2023-02-15T14:52:18;58.87;;;29.53;;
21046;SDS011;10682;50.874;3.656;2023-02-15T15:02:20;55.03;;;27.97;;
21046;SDS011;10682;50.874;3.656;2023-02-15T15:07:52;55.60;;;28.70;;
21046;SDS011;10682;50.874;3.656;2023-02-15T15:13:34;58.30;;;28.63;;
21046;SDS011;10682;50.874;3.656;2023-02-15T15:15:56;59.13;;;28.37;;
21046;SDS011;10682;50.874;3.656;2023-02-15T15:18:57;56.93;;;29.60;;
21046;SDS011;10682;50.874;3.656;2023-02-15T15:49:14;67.20;;;30.23;;
21046;SDS011;10682;50.874;3.656;2023-02-15T15:51:44;64.23;;;31.23;;
21046;SDS011;10682;50.874;3.656;2023-02-15T15:54:20;67.53;;;30.80;;
21046;SDS011;10682;50.874;3.656;2023-02-15T15:57:02;67.47;;;31.37;;
21046;SDS011;10682;50.874;3.656;2023-02-15T15:59:31;64.60;;;30.00;;
21046;SDS011;10682;50.874;3.656;2023-02-15T16:02:07;65.93;;;30.27;;
21046;SDS011;10682;50.874;3.656;2023-02-15T16:04:38;71.23;;;30.80;;
21046;SDS011;10682;50.874;3.656;2023-02-15T16:12:34;62.43;;;30.27;;
21046;SDS011;10682;50.874;3.656;2023-02-15T16:15:20;62.70;;;30.53;;
21046;SDS011;10682;50.874;3.656;2023-02-15T16:18:14;63.37;;;29.87;;
21046;SDS011;10682;50.874;3.656;2023-02-15T16:20:51;60.07;;;29.97;;
21046;SDS011;10682;50.874;3.656;2023-02-15T16:29:26;61.30;;;29.93;;
21046;SDS011;10682;50.874;3.656;2023-02-15T16:34:56;57.37;;;30.30;;
21046;SDS011;10682;50.874;3.656;2023-02-15T16:37:33;57.00;;;29.93;;
21046;SDS011;10682;50.874;3.656;2023-02-15T16:40:01;61.90;;;31.73;;
21046;SDS011;10682;50.874;3.656;2023-02-15T16:42:28;69.23;;;31.90;;
21046;SDS011;10682;50.874;3.656;2023-02-15T16:45:12;63.53;;;30.93;;
21046;SDS011;10682;50.874;3.656;2023-02-15T16:47:43;62.20;;;31.33;;
21046;SDS011;10682;50.874;3.656;2023-02-15T16:50:17;66.73;;;32.70;;
21046;SDS011;10682;50.874;3.656;2023-02-15T16:52:49;67.60;;;32.30;;
21046;SDS011;10682;50.874;3.656;2023-02-15T16:55:22;61.23;;;30.90;;
21046;SDS011;10682;50.874;3.656;2023-02-15T16:58:05;60.53;;;31.13;;
21046;SDS011;10682;50.874;3.656;2023-02-15T17:00:37;64.63;;;29.87;;
21046;SDS011;10682;50.874;3.656;2023-02-15T17:08:17;63.67;;;30.53;;
21046;SDS011;10682;50.874;3.656;2023-02-15T17:13:25;63.70;;;30.83;;
21046;SDS011;10682;50.874;3.656;2023-02-15T17:18:30;65.53;;;32.13;;
21046;SDS011;10682;50.874;3.656;2023-02-15T17:21:10;72.13;;;32.93;;
21046;SDS011;10682;50.874;3.656;2023-02-15T17:23:47;68.50;;;33.10;;
21046;SDS011;10682;50.874;3.656;2023-02-15T17:26:21;72.50;;;33.40;;
21046;SDS011;10682;50.874;3.656;2023-02-15T17:28:52;74.57;;;35.43;;
21046;SDS011;10682;50.874;3.656;2023-02-15T17:31:24;71.17;;;34.03;;
21046;SDS011;10682;50.874;3.656;2023-02-15T17:33:55;72.67;;;35.10;;
21046;SDS011;10682;50.874;3.656;2023-02-15T17:36:25;70.77;;;34.07;;
21046;SDS011;10682;50.874;3.656;2023-02-15T17:41:34;74.17;;;34.93;;
21046;SDS011;10682;50.874;3.656;2023-02-15T17:44:03;69.73;;;35.77;;
21046;SDS011;10682;50.874;3.656;2023-02-15T17:46:34;74.90;;;35.37;;
21046;SDS011;10682;50.874;3.656;2023-02-15T17:49:04;76.27;;;36.47;;
21046;SDS011;10682;50.874;3.656;2023-02-15T17:51:31;76.47;;;36.10;;
21046;SDS011;10682;50.874;3.656;2023-02-15T17:54:01;76.17;;;36.07;;
21046;SDS011;10682;50.874;3.656;2023-02-15T17:56:47;72.47;;;36.20;;
21046;SDS011;10682;50.874;3.656;2023-02-15T17:59:14;75.03;;;35.60;;
21046;SDS011;10682;50.874;3.656;2023-02-15T18:01:45;75.77;;;37.10;;
21046;SDS011;10682;50.874;3.656;2023-02-15T18:04:33;84.37;;;37.90;;
21046;SDS011;10682;50.874;3.656;2023-02-15T18:07:21;81.90;;;38.73;;
21046;SDS011;10682;50.874;3.656;2023-02-15T18:10:16;74.00;;;36.13;;
21046;SDS011;10682;50.874;3.656;2023-02-15T18:13:03;80.77;;;39.30;;
21046;SDS011;10682;50.874;3.656;2023-02-15T18:15:30;76.20;;;37.73;;
21046;SDS011;10682;50.874;3.656;2023-02-15T18:17:58;75.87;;;37.13;;
21046;SDS011;10682;50.874;3.656;2023-02-15T18:20:27;78.20;;;39.37;;
21046;SDS011;10682;50.874;3.656;2023-02-15T18:23:02;78.20;;;37.77;;
21046;SDS011;10682;50.874;3.656;2023-02-15T18:25:29;74.37;;;37.23;;
21046;SDS011;10682;50.874;3.656;2023-02-15T18:27:56;81.63;;;38.47;;
21046;SDS011;10682;50.874;3.656;2023-02-15T18:30:23;80.07;;;38.70;;
21046;SDS011;10682;50.874;3.656;2023-02-15T18:32:53;75.83;;;37.83;;